sensor_id;sensor_type;location;lat;lon;timestamp;P1;durP1;ratioP1;P2;durP2;ratioP2
22040;SDS011;11184;52.444;13.578;2023-04-05T00:00:11;11.77;;;6.90;;
22040;SDS011;11184;52.444;13.578;2023-04-05T00:02:56;15.85;;;7.60;;
22040;SDS011;11184;52.444;13.578;2023-04-05T00:05:42;11.50;;;7.38;;
22040;SDS011;11184;52.444;13.578;2023-04-05T00:08:28;8.77;;;6.13;;
22040;SDS011;11184;52.444;13.578;2023-04-05T00:11:13;13.43;;;7.22;;
22040;SDS011;11184;52.444;13.578;2023-04-05T00:13:58;10.70;;;7.05;;
22040;SDS011;11184;52.444;13.578;2023-04-05T00:16:43;13.15;;;8.10;;
22040;SDS011;11184;52.444;13.578;2023-04-05T00:19:28;13.95;;;7.78;;
22040;SDS011;11184;52.444;13.578;2023-04-05T00:22:16;19.85;;;8.68;;
22040;SDS011;11184;52.444;13.578;2023-04-05T00:25:08;12.95;;;8.15;;
22040;SDS011;11184;52.444;13.578;2023-04-05T00:27:52;6.20;;;5.60;;
22040;SDS011;11184;52.444;13.578;2023-04-05T00:30:37;9.52;;;7.32;;
22040;SDS011;11184;52.444;13.578;2023-04-05T00:33:22;16.95;;;7.65;;
22040;SDS011;11184;52.444;13.578;2023-04-05T00:36:10;15.30;;;7.28;;
22040;SDS011;11184;52.444;13.578;2023-04-05T00:38:55;15.35;;;8.63;;
22040;SDS011;11184;52.444;13.578;2023-04-05T00:41:40;9.10;;;7.82;;
22040;SDS011;11184;52.444;13.578;2023-04-05T00:44:26;12.30;;;8.05;;
22040;SDS011;11184;52.444;13.578;2023-04-05T00:47:11;10.82;;;8.50;;
22040;SDS011;11184;52.444;13.578;2023-04-05T00:49:56;12.82;;;7.72;;
22040;SDS011;11184;52.444;13.578;2023-04-05T00:52:40;13.75;;;7.63;;
22040;SDS011;11184;52.444;13.578;2023-04-05T00:55:26;10.75;;;9.15;;
22040;SDS011;11184;52.444;13.578;2023-04-05T00:58:11;6.82;;;5.75;;
22040;SDS011;11184;52.444;13.578;2023-04-05T01:01:00;9.10;;;6.18;;
22040;SDS011;11184;52.444;13.578;2023-04-05T01:03:48;8.77;;;5.90;;
22040;SDS011;11184;52.444;13.578;2023-04-05T01:12:22;9.20;;;5.85;;
22040;SDS011;11184;52.444;13.578;2023-04-05T01:15:07;8.15;;;6.65;;
22040;SDS011;11184;52.444;13.578;2023-04-05T01:17:52;7.95;;;5.95;;
22040;SDS011;11184;52.444;13.578;2023-04-05T01:20:44;6.30;;;5.70;;
22040;SDS011;11184;52.444;13.578;2023-04-05T01:23:35;16.42;;;7.20;;
22040;SDS011;11184;52.444;13.578;2023-04-05T01:26:26;8.90;;;7.22;;
22040;SDS011;11184;52.444;13.578;2023-04-05T01:32:28;10.05;;;6.50;;
22040;SDS011;11184;52.444;13.578;2023-04-05T01:35:21;7.80;;;6.10;;
22040;SDS011;11184;52.444;13.578;2023-04-05T01:38:08;9.77;;;6.97;;
22040;SDS011;11184;52.444;13.578;2023-04-05T01:40:55;10.10;;;6.80;;
22040;SDS011;11184;52.444;13.578;2023-04-05T01:43:40;5.68;;;5.15;;
22040;SDS011;11184;52.444;13.578;2023-04-05T01:46:24;13.35;;;6.03;;
22040;SDS011;11184;52.444;13.578;2023-04-05T01:49:09;10.70;;;7.05;;
22040;SDS011;11184;52.444;13.578;2023-04-05T01:51:54;6.93;;;4.78;;
22040;SDS011;11184;52.444;13.578;2023-04-05T01:54:39;6.55;;;5.78;;
22040;SDS011;11184;52.444;13.578;2023-04-05T01:57:23;5.80;;;4.90;;
22040;SDS011;11184;52.444;13.578;2023-04-05T02:00:08;6.47;;;4.25;;
22040;SDS011;11184;52.444;13.578;2023-04-05T02:02:53;7.45;;;4.70;;
22040;SDS011;11184;52.444;13.578;2023-04-05T02:05:38;6.60;;;4.45;;
22040;SDS011;11184;52.444;13.578;2023-04-05T02:08:22;7.45;;;5.03;;
22040;SDS011;11184;52.444;13.578;2023-04-05T02:11:07;5.47;;;4.80;;
22040;SDS011;11184;52.444;13.578;2023-04-05T02:13:52;5.70;;;4.18;;
22040;SDS011;11184;52.444;13.578;2023-04-05T02:16:37;4.00;;;3.60;;
22040;SDS011;11184;52.444;13.578;2023-04-05T02:19:21;4.80;;;4.30;;
22040;SDS011;11184;52.444;13.578;2023-04-05T02:22:07;7.20;;;4.30;;
22040;SDS011;11184;52.444;13.578;2023-04-05T02:24:52;6.28;;;4.80;;
22040;SDS011;11184;52.444;13.578;2023-04-05T02:27:36;4.15;;;3.45;;
22040;SDS011;11184;52.444;13.578;2023-04-05T02:30:21;3.47;;;3.15;;
22040;SDS011;11184;52.444;13.578;2023-04-05T02:33:06;7.40;;;3.72;;
22040;SDS011;11184;52.444;13.578;2023-04-05T02:35:52;6.97;;;4.53;;
22040;SDS011;11184;52.444;13.578;2023-04-05T02:38:37;10.40;;;5.20;;
22040;SDS011;11184;52.444;13.578;2023-04-05T02:41:21;9.18;;;6.00;;
22040;SDS011;11184;52.444;13.578;2023-04-05T02:44:07;8.75;;;4.10;;
22040;SDS011;11184;52.444;13.578;2023-04-05T02:46:51;4.22;;;2.97;;
22040;SDS011;11184;52.444;13.578;2023-04-05T02:49:36;4.95;;;3.60;;
22040;SDS011;11184;52.444;13.578;2023-04-05T02:52:21;5.35;;;3.67;;
22040;SDS011;11184;52.444;13.578;2023-04-05T02:55:06;7.63;;;4.13;;
22040;SDS011;11184;52.444;13.578;2023-04-05T02:57:51;5.95;;;3.70;;
22040;SDS011;11184;52.444;13.578;2023-04-05T03:00:35;6.90;;;4.07;;
22040;SDS011;11184;52.444;13.578;2023-04-05T03:03:21;12.00;;;5.57;;
22040;SDS011;11184;52.444;13.578;2023-04-05T03:06:06;9.63;;;5.03;;
22040;SDS011;11184;52.444;13.578;2023-04-05T03:08:52;4.68;;;4.18;;
22040;SDS011;11184;52.444;13.578;2023-04-05T03:11:38;6.53;;;4.63;;
22040;SDS011;11184;52.444;13.578;2023-04-05T03:14:23;6.13;;;5.30;;
22040;SDS011;11184;52.444;13.578;2023-04-05T03:17:08;6.00;;;5.40;;
22040;SDS011;11184;52.444;13.578;2023-04-05T03:19:53;11.02;;;6.00;;
22040;SDS011;11184;52.444;13.578;2023-04-05T03:22:37;9.18;;;5.55;;
22040;SDS011;11184;52.444;13.578;2023-04-05T03:25:22;6.30;;;5.72;;
22040;SDS011;11184;52.444;13.578;2023-04-05T03:28:08;8.80;;;4.75;;
22040;SDS011;11184;52.444;13.578;2023-04-05T03:30:52;6.30;;;4.45;;
22040;SDS011;11184;52.444;13.578;2023-04-05T03:33:37;7.80;;;4.07;;
22040;SDS011;11184;52.444;13.578;2023-04-05T03:36:22;5.57;;;3.95;;
22040;SDS011;11184;52.444;13.578;2023-04-05T03:39:07;8.82;;;3.50;;
22040;SDS011;11184;52.444;13.578;2023-04-05T03:41:53;8.57;;;4.50;;
22040;SDS011;11184;52.444;13.578;2023-04-05T03:44:37;4.25;;;3.50;;
22040;SDS011;11184;52.444;13.578;2023-04-05T03:47:22;8.30;;;4.82;;
22040;SDS011;11184;52.444;13.578;2023-04-05T03:50:07;5.75;;;4.57;;
22040;SDS011;11184;52.444;13.578;2023-04-05T03:52:51;5.72;;;5.00;;
22040;SDS011;11184;52.444;13.578;2023-04-05T03:55:36;7.25;;;4.88;;
22040;SDS011;11184;52.444;13.578;2023-04-05T03:58:24;10.98;;;5.28;;
22040;SDS011;11184;52.444;13.578;2023-04-05T04:01:09;8.85;;;4.85;;
22040;SDS011;11184;52.444;13.578;2023-04-05T04:03:54;6.47;;;4.90;;
22040;SDS011;11184;52.444;13.578;2023-04-05T04:06:38;7.70;;;5.53;;
22040;SDS011;11184;52.444;13.578;2023-04-05T04:09:24;9.13;;;6.28;;
22040;SDS011;11184;52.444;13.578;2023-04-05T04:12:12;8.43;;;5.30;;
22040;SDS011;11184;52.444;13.578;2023-04-05T04:14:56;12.32;;;4.88;;
22040;SDS011;11184;52.444;13.578;2023-04-05T04:17:41;10.23;;;5.40;;
22040;SDS011;11184;52.444;13.578;2023-04-05T04:20:26;10.50;;;5.28;;
22040;SDS011;11184;52.444;13.578;2023-04-05T04:23:10;5.68;;;4.65;;
22040;SDS011;11184;52.444;13.578;2023-04-05T04:25:56;6.35;;;5.75;;
22040;SDS011;11184;52.444;13.578;2023-04-05T04:28:41;8.88;;;4.88;;
22040;SDS011;11184;52.444;13.578;2023-04-05T04:31:26;7.28;;;4.55;;
22040;SDS011;11184;52.444;13.578;2023-04-05T04:34:11;9.02;;;6.35;;
22040;SDS011;11184;52.444;13.578;2023-04-05T04:36:56;12.65;;;6.30;;
22040;SDS011;11184;52.444;13.578;2023-04-05T04:39:46;10.10;;;5.50;;
22040;SDS011;11184;52.444;13.578;2023-04-05T04:42:31;11.63;;;5.25;;
22040;SDS011;11184;52.444;13.578;2023-04-05T04:45:21;6.60;;;5.63;;
22040;SDS011;11184;52.444;13.578;2023-04-05T04:48:06;7.32;;;5.88;;
22040;SDS011;11184;52.444;13.578;2023-04-05T04:50:50;7.32;;;5.47;;
22040;SDS011;11184;52.444;13.578;2023-04-05T04:53:35;9.73;;;5.43;;
22040;SDS011;11184;52.444;13.578;2023-04-05T04:56:19;5.10;;;4.68;;
22040;SDS011;11184;52.444;13.578;2023-04-05T04:59:04;6.38;;;5.55;;
22040;SDS011;11184;52.444;13.578;2023-04-05T05:01:49;8.25;;;5.85;;
22040;SDS011;11184;52.444;13.578;2023-04-05T05:04:34;8.85;;;5.18;;
22040;SDS011;11184;52.444;13.578;2023-04-05T05:07:18;6.82;;;4.93;;
22040;SDS011;11184;52.444;13.578;2023-04-05T05:10:04;7.75;;;5.63;;
22040;SDS011;11184;52.444;13.578;2023-04-05T05:12:50;8.77;;;6.20;;
22040;SDS011;11184;52.444;13.578;2023-04-05T05:15:35;8.38;;;5.18;;
22040;SDS011;11184;52.444;13.578;2023-04-05T05:18:22;7.28;;;5.18;;
22040;SDS011;11184;52.444;13.578;2023-04-05T05:21:06;12.32;;;4.72;;
22040;SDS011;11184;52.444;13.578;2023-04-05T05:23:51;7.32;;;5.28;;
22040;SDS011;11184;52.444;13.578;2023-04-05T05:26:36;11.88;;;4.85;;
22040;SDS011;11184;52.444;13.578;2023-04-05T05:29:20;9.00;;;5.47;;
22040;SDS011;11184;52.444;13.578;2023-04-05T05:32:05;5.68;;;4.68;;
22040;SDS011;11184;52.444;13.578;2023-04-05T05:34:50;9.45;;;5.38;;
22040;SDS011;11184;52.444;13.578;2023-04-05T05:37:34;9.02;;;5.18;;
22040;SDS011;11184;52.444;13.578;2023-04-05T05:40:20;5.65;;;4.53;;
22040;SDS011;11184;52.444;13.578;2023-04-05T05:43:04;5.85;;;4.28;;
22040;SDS011;11184;52.444;13.578;2023-04-05T05:45:49;8.30;;;4.88;;
22040;SDS011;11184;52.444;13.578;2023-04-05T05:48:33;5.82;;;3.92;;
22040;SDS011;11184;52.444;13.578;2023-04-05T05:51:19;9.18;;;4.88;;
22040;SDS011;11184;52.444;13.578;2023-04-05T05:54:04;8.82;;;4.75;;
22040;SDS011;11184;52.444;13.578;2023-04-05T05:56:50;8.52;;;5.28;;
22040;SDS011;11184;52.444;13.578;2023-04-05T05:59:35;8.88;;;4.68;;
22040;SDS011;11184;52.444;13.578;2023-04-05T06:02:19;12.32;;;5.50;;
22040;SDS011;11184;52.444;13.578;2023-04-05T06:05:04;5.80;;;5.03;;
22040;SDS011;11184;52.444;13.578;2023-04-05T06:07:49;6.43;;;3.92;;
22040;SDS011;11184;52.444;13.578;2023-04-05T06:10:34;13.05;;;6.80;;
22040;SDS011;11184;52.444;13.578;2023-04-05T06:13:20;6.68;;;5.28;;
22040;SDS011;11184;52.444;13.578;2023-04-05T06:16:05;9.57;;;5.80;;
22040;SDS011;11184;52.444;13.578;2023-04-05T06:18:49;6.53;;;4.57;;
22040;SDS011;11184;52.444;13.578;2023-04-05T06:21:34;8.10;;;4.60;;
22040;SDS011;11184;52.444;13.578;2023-04-05T06:24:19;7.40;;;5.07;;
22040;SDS011;11184;52.444;13.578;2023-04-05T06:27:03;7.40;;;4.40;;
22040;SDS011;11184;52.444;13.578;2023-04-05T06:29:48;5.53;;;4.18;;
22040;SDS011;11184;52.444;13.578;2023-04-05T06:32:32;7.97;;;5.40;;
22040;SDS011;11184;52.444;13.578;2023-04-05T06:35:17;8.50;;;6.00;;
22040;SDS011;11184;52.444;13.578;2023-04-05T06:38:02;10.85;;;4.45;;
22040;SDS011;11184;52.444;13.578;2023-04-05T06:40:47;10.63;;;4.63;;
22040;SDS011;11184;52.444;13.578;2023-04-05T06:43:31;6.13;;;5.00;;
22040;SDS011;11184;52.444;13.578;2023-04-05T06:46:16;8.27;;;5.13;;
22040;SDS011;11184;52.444;13.578;2023-04-05T06:49:01;9.38;;;5.13;;
22040;SDS011;11184;52.444;13.578;2023-04-05T06:51:45;15.80;;;5.05;;
22040;SDS011;11184;52.444;13.578;2023-04-05T06:54:31;8.52;;;5.90;;
22040;SDS011;11184;52.444;13.578;2023-04-05T06:57:17;11.88;;;6.40;;
22040;SDS011;11184;52.444;13.578;2023-04-05T07:00:02;14.05;;;6.80;;
22040;SDS011;11184;52.444;13.578;2023-04-05T07:02:52;9.45;;;6.60;;
22040;SDS011;11184;52.444;13.578;2023-04-05T07:05:36;7.47;;;5.97;;
22040;SDS011;11184;52.444;13.578;2023-04-05T07:08:21;7.38;;;4.97;;
22040;SDS011;11184;52.444;13.578;2023-04-05T07:11:06;6.57;;;5.60;;
22040;SDS011;11184;52.444;13.578;2023-04-05T07:13:51;7.97;;;5.72;;
22040;SDS011;11184;52.444;13.578;2023-04-05T07:16:35;12.98;;;6.70;;
22040;SDS011;11184;52.444;13.578;2023-04-05T07:19:20;8.07;;;5.53;;
22040;SDS011;11184;52.444;13.578;2023-04-05T07:22:05;22.80;;;6.97;;
22040;SDS011;11184;52.444;13.578;2023-04-05T07:24:49;10.15;;;5.55;;
22040;SDS011;11184;52.444;13.578;2023-04-05T07:27:35;8.57;;;6.60;;
22040;SDS011;11184;52.444;13.578;2023-04-05T07:30:20;8.88;;;5.80;;
22040;SDS011;11184;52.444;13.578;2023-04-05T07:33:05;9.45;;;7.13;;
22040;SDS011;11184;52.444;13.578;2023-04-05T07:35:55;45.17;;;26.35;;
22040;SDS011;11184;52.444;13.578;2023-04-05T07:38:40;11.50;;;6.25;;
22040;SDS011;11184;52.444;13.578;2023-04-05T07:41:25;14.10;;;7.28;;
22040;SDS011;11184;52.444;13.578;2023-04-05T07:44:10;10.88;;;6.55;;
22040;SDS011;11184;52.444;13.578;2023-04-05T07:46:55;9.43;;;6.15;;
22040;SDS011;11184;52.444;13.578;2023-04-05T07:49:39;8.50;;;5.95;;
22040;SDS011;11184;52.444;13.578;2023-04-05T07:52:24;13.07;;;6.57;;
22040;SDS011;11184;52.444;13.578;2023-04-05T07:55:09;9.93;;;5.32;;
22040;SDS011;11184;52.444;13.578;2023-04-05T07:57:53;8.73;;;5.18;;
22040;SDS011;11184;52.444;13.578;2023-04-05T08:00:38;8.52;;;5.40;;
22040;SDS011;11184;52.444;13.578;2023-04-05T08:03:24;6.10;;;4.93;;
22040;SDS011;11184;52.444;13.578;2023-04-05T08:06:11;11.25;;;4.90;;
22040;SDS011;11184;52.444;13.578;2023-04-05T08:08:56;4.70;;;3.75;;
22040;SDS011;11184;52.444;13.578;2023-04-05T08:11:40;4.15;;;3.75;;
22040;SDS011;11184;52.444;13.578;2023-04-05T08:14:25;5.72;;;5.07;;
22040;SDS011;11184;52.444;13.578;2023-04-05T08:17:10;7.82;;;4.22;;
22040;SDS011;11184;52.444;13.578;2023-04-05T08:19:55;5.85;;;4.30;;
22040;SDS011;11184;52.444;13.578;2023-04-05T08:22:39;4.65;;;3.25;;
22040;SDS011;11184;52.444;13.578;2023-04-05T08:25:24;4.32;;;3.90;;
22040;SDS011;11184;52.444;13.578;2023-04-05T08:28:09;4.78;;;3.47;;
22040;SDS011;11184;52.444;13.578;2023-04-05T08:30:54;5.25;;;3.67;;
22040;SDS011;11184;52.444;13.578;2023-04-05T08:33:40;3.90;;;3.60;;
22040;SDS011;11184;52.444;13.578;2023-04-05T08:36:24;5.22;;;4.63;;
22040;SDS011;11184;52.444;13.578;2023-04-05T08:39:10;7.00;;;3.95;;
22040;SDS011;11184;52.444;13.578;2023-04-05T08:42:07;4.80;;;3.67;;
22040;SDS011;11184;52.444;13.578;2023-04-05T08:44:54;5.53;;;4.10;;
22040;SDS011;11184;52.444;13.578;2023-04-05T08:47:41;5.43;;;2.50;;
22040;SDS011;11184;52.444;13.578;2023-04-05T08:50:26;4.30;;;2.92;;
22040;SDS011;11184;52.444;13.578;2023-04-05T08:53:10;3.35;;;2.80;;
22040;SDS011;11184;52.444;13.578;2023-04-05T08:55:55;2.97;;;2.50;;
22040;SDS011;11184;52.444;13.578;2023-04-05T08:58:40;5.22;;;2.38;;
22040;SDS011;11184;52.444;13.578;2023-04-05T09:01:30;3.08;;;2.30;;
22040;SDS011;11184;52.444;13.578;2023-04-05T09:04:16;7.35;;;3.85;;
22040;SDS011;11184;52.444;13.578;2023-04-05T09:07:01;4.63;;;2.70;;
22040;SDS011;11184;52.444;13.578;2023-04-05T09:09:48;5.25;;;2.88;;
22040;SDS011;11184;52.444;13.578;2023-04-05T09:12:34;5.88;;;3.25;;
22040;SDS011;11184;52.444;13.578;2023-04-05T09:15:19;4.22;;;2.67;;
22040;SDS011;11184;52.444;13.578;2023-04-05T09:18:06;5.32;;;3.05;;
22040;SDS011;11184;52.444;13.578;2023-04-05T09:20:55;5.88;;;2.60;;
22040;SDS011;11184;52.444;13.578;2023-04-05T09:23:40;2.80;;;2.55;;
22040;SDS011;11184;52.444;13.578;2023-04-05T09:26:34;5.55;;;3.33;;
22040;SDS011;11184;52.444;13.578;2023-04-05T09:29:29;6.82;;;3.05;;
22040;SDS011;11184;52.444;13.578;2023-04-05T09:32:15;6.20;;;3.15;;
22040;SDS011;11184;52.444;13.578;2023-04-05T09:35:00;4.30;;;2.38;;
22040;SDS011;11184;52.444;13.578;2023-04-05T09:37:54;4.18;;;2.45;;
22040;SDS011;11184;52.444;13.578;2023-04-05T09:40:43;5.07;;;2.60;;
22040;SDS011;11184;52.444;13.578;2023-04-05T09:43:35;8.57;;;2.67;;
22040;SDS011;11184;52.444;13.578;2023-04-05T09:46:33;4.22;;;2.70;;
22040;SDS011;11184;52.444;13.578;2023-04-05T09:49:32;6.78;;;1.88;;
22040;SDS011;11184;52.444;13.578;2023-04-05T09:52:20;5.22;;;3.22;;
22040;SDS011;11184;52.444;13.578;2023-04-05T09:55:06;3.30;;;2.28;;
22040;SDS011;11184;52.444;13.578;2023-04-05T09:57:51;4.60;;;2.53;;
22040;SDS011;11184;52.444;13.578;2023-04-05T10:00:35;4.57;;;2.38;;
22040;SDS011;11184;52.444;13.578;2023-04-05T10:03:20;3.85;;;1.83;;
22040;SDS011;11184;52.444;13.578;2023-04-05T10:06:08;4.55;;;2.55;;
22040;SDS011;11184;52.444;13.578;2023-04-05T10:08:53;3.92;;;2.45;;
22040;SDS011;11184;52.444;13.578;2023-04-05T10:11:38;6.47;;;2.10;;
22040;SDS011;11184;52.444;13.578;2023-04-05T10:14:22;2.47;;;2.03;;
22040;SDS011;11184;52.444;13.578;2023-04-05T10:17:08;3.90;;;2.22;;
22040;SDS011;11184;52.444;13.578;2023-04-05T10:19:56;3.72;;;1.90;;
22040;SDS011;11184;52.444;13.578;2023-04-05T10:22:46;3.25;;;2.22;;
22040;SDS011;11184;52.444;13.578;2023-04-05T10:28:33;3.55;;;2.17;;
22040;SDS011;11184;52.444;13.578;2023-04-05T10:31:27;3.42;;;2.00;;
22040;SDS011;11184;52.444;13.578;2023-04-05T10:34:16;5.00;;;1.70;;
22040;SDS011;11184;52.444;13.578;2023-04-05T10:37:04;2.55;;;1.67;;
22040;SDS011;11184;52.444;13.578;2023-04-05T10:39:50;2.13;;;1.80;;
22040;SDS011;11184;52.444;13.578;2023-04-05T10:42:41;2.28;;;1.77;;
22040;SDS011;11184;52.444;13.578;2023-04-05T10:45:29;3.92;;;2.05;;
22040;SDS011;11184;52.444;13.578;2023-04-05T10:48:28;3.72;;;2.95;;
22040;SDS011;11184;52.444;13.578;2023-04-05T10:51:15;4.07;;;2.40;;
22040;SDS011;11184;52.444;13.578;2023-04-05T10:54:00;5.68;;;2.25;;
22040;SDS011;11184;52.444;13.578;2023-04-05T10:56:46;3.28;;;2.38;;
22040;SDS011;11184;52.444;13.578;2023-04-05T10:59:30;3.33;;;2.78;;
22040;SDS011;11184;52.444;13.578;2023-04-05T11:02:15;8.45;;;2.55;;
22040;SDS011;11184;52.444;13.578;2023-04-05T11:05:04;2.95;;;1.95;;
22040;SDS011;11184;52.444;13.578;2023-04-05T11:07:49;3.70;;;3.05;;
22040;SDS011;11184;52.444;13.578;2023-04-05T11:10:35;2.72;;;2.35;;
22040;SDS011;11184;52.444;13.578;2023-04-05T11:13:20;3.03;;;2.72;;
22040;SDS011;11184;52.444;13.578;2023-04-05T11:16:37;4.93;;;2.22;;
22040;SDS011;11184;52.444;13.578;2023-04-05T11:22:27;5.18;;;2.22;;
22040;SDS011;11184;52.444;13.578;2023-04-05T11:25:21;8.60;;;2.65;;
22040;SDS011;11184;52.444;13.578;2023-04-05T11:28:06;5.93;;;3.05;;
22040;SDS011;11184;52.444;13.578;2023-04-05T11:30:52;5.80;;;2.58;;
22040;SDS011;11184;52.444;13.578;2023-04-05T11:39:22;7.68;;;3.03;;
22040;SDS011;11184;52.444;13.578;2023-04-05T11:42:10;5.20;;;3.50;;
22040;SDS011;11184;52.444;13.578;2023-04-05T11:44:55;3.10;;;2.58;;
22040;SDS011;11184;52.444;13.578;2023-04-05T11:47:40;3.83;;;2.78;;
22040;SDS011;11184;52.444;13.578;2023-04-05T11:50:25;4.05;;;2.00;;
22040;SDS011;11184;52.444;13.578;2023-04-05T11:53:13;7.07;;;3.10;;
22040;SDS011;11184;52.444;13.578;2023-04-05T11:56:05;3.22;;;2.80;;
22040;SDS011;11184;52.444;13.578;2023-04-05T11:58:50;4.75;;;2.65;;
22040;SDS011;11184;52.444;13.578;2023-04-05T12:01:35;7.43;;;4.03;;
22040;SDS011;11184;52.444;13.578;2023-04-05T12:04:21;6.47;;;2.90;;
22040;SDS011;11184;52.444;13.578;2023-04-05T12:12:41;3.85;;;3.35;;
22040;SDS011;11184;52.444;13.578;2023-04-05T12:15:26;4.82;;;2.50;;
22040;SDS011;11184;52.444;13.578;2023-04-05T12:18:13;3.00;;;2.03;;
22040;SDS011;11184;52.444;13.578;2023-04-05T12:20:58;4.03;;;2.65;;
22040;SDS011;11184;52.444;13.578;2023-04-05T12:23:43;4.30;;;2.17;;
22040;SDS011;11184;52.444;13.578;2023-04-05T12:26:27;4.18;;;2.30;;
22040;SDS011;11184;52.444;13.578;2023-04-05T12:29:16;8.77;;;3.25;;
22040;SDS011;11184;52.444;13.578;2023-04-05T12:32:01;3.35;;;2.58;;
22040;SDS011;11184;52.444;13.578;2023-04-05T12:34:46;7.30;;;3.40;;
22040;SDS011;11184;52.444;13.578;2023-04-05T12:37:32;3.95;;;3.22;;
22040;SDS011;11184;52.444;13.578;2023-04-05T12:40:19;10.02;;;2.72;;
22040;SDS011;11184;52.444;13.578;2023-04-05T12:43:04;4.43;;;2.25;;
22040;SDS011;11184;52.444;13.578;2023-04-05T12:45:52;4.47;;;2.55;;
22040;SDS011;11184;52.444;13.578;2023-04-05T12:48:38;5.03;;;2.45;;
22040;SDS011;11184;52.444;13.578;2023-04-05T12:51:24;5.50;;;2.47;;
22040;SDS011;11184;52.444;13.578;2023-04-05T12:54:13;4.82;;;2.25;;
22040;SDS011;11184;52.444;13.578;2023-04-05T12:57:00;2.92;;;2.15;;
22040;SDS011;11184;52.444;13.578;2023-04-05T12:59:47;5.60;;;2.53;;
22040;SDS011;11184;52.444;13.578;2023-04-05T13:02:31;2.70;;;2.30;;
22040;SDS011;11184;52.444;13.578;2023-04-05T13:05:16;3.42;;;2.20;;
22040;SDS011;11184;52.444;13.578;2023-04-05T13:08:00;2.65;;;2.08;;
22040;SDS011;11184;52.444;13.578;2023-04-05T13:10:45;4.00;;;2.53;;
22040;SDS011;11184;52.444;13.578;2023-04-05T13:13:30;5.72;;;2.60;;
22040;SDS011;11184;52.444;13.578;2023-04-05T13:16:16;4.22;;;2.22;;
22040;SDS011;11184;52.444;13.578;2023-04-05T13:19:01;7.63;;;2.42;;
22040;SDS011;11184;52.444;13.578;2023-04-05T13:21:46;4.68;;;2.65;;
22040;SDS011;11184;52.444;13.578;2023-04-05T13:24:30;6.88;;;2.53;;
22040;SDS011;11184;52.444;13.578;2023-04-05T13:27:15;3.50;;;2.72;;
22040;SDS011;11184;52.444;13.578;2023-04-05T13:29:59;4.43;;;1.83;;
22040;SDS011;11184;52.444;13.578;2023-04-05T13:32:44;4.47;;;2.40;;
22040;SDS011;11184;52.444;13.578;2023-04-05T13:35:29;5.55;;;2.58;;
22040;SDS011;11184;52.444;13.578;2023-04-05T13:38:13;6.97;;;1.95;;
22040;SDS011;11184;52.444;13.578;2023-04-05T13:40:58;3.28;;;1.80;;
22040;SDS011;11184;52.444;13.578;2023-04-05T13:43:43;4.13;;;2.65;;
22040;SDS011;11184;52.444;13.578;2023-04-05T13:46:28;4.55;;;2.17;;
22040;SDS011;11184;52.444;13.578;2023-04-05T13:49:13;4.50;;;2.38;;
22040;SDS011;11184;52.444;13.578;2023-04-05T13:51:58;5.00;;;2.17;;
22040;SDS011;11184;52.444;13.578;2023-04-05T13:54:42;6.88;;;3.00;;
22040;SDS011;11184;52.444;13.578;2023-04-05T13:57:27;3.38;;;2.45;;
22040;SDS011;11184;52.444;13.578;2023-04-05T14:00:11;3.42;;;2.35;;
22040;SDS011;11184;52.444;13.578;2023-04-05T14:02:56;4.50;;;2.45;;
22040;SDS011;11184;52.444;13.578;2023-04-05T14:05:41;4.38;;;2.83;;
22040;SDS011;11184;52.444;13.578;2023-04-05T14:08:26;4.28;;;3.53;;
22040;SDS011;11184;52.444;13.578;2023-04-05T14:11:11;3.97;;;2.80;;
22040;SDS011;11184;52.444;13.578;2023-04-05T14:13:55;6.32;;;2.50;;
22040;SDS011;11184;52.444;13.578;2023-04-05T14:16:40;8.13;;;2.58;;
22040;SDS011;11184;52.444;13.578;2023-04-05T14:19:25;5.47;;;3.20;;
22040;SDS011;11184;52.444;13.578;2023-04-05T14:22:09;4.13;;;2.55;;
22040;SDS011;11184;52.444;13.578;2023-04-05T14:24:54;3.15;;;2.53;;
22040;SDS011;11184;52.444;13.578;2023-04-05T14:27:39;3.85;;;2.92;;
22040;SDS011;11184;52.444;13.578;2023-04-05T14:30:24;3.53;;;3.10;;
22040;SDS011;11184;52.444;13.578;2023-04-05T14:33:09;4.30;;;2.85;;
22040;SDS011;11184;52.444;13.578;2023-04-05T14:35:56;4.38;;;2.80;;
22040;SDS011;11184;52.444;13.578;2023-04-05T14:38:41;3.88;;;2.60;;
22040;SDS011;11184;52.444;13.578;2023-04-05T14:41:26;4.03;;;2.70;;
22040;SDS011;11184;52.444;13.578;2023-04-05T14:44:10;3.67;;;3.08;;
22040;SDS011;11184;52.444;13.578;2023-04-05T14:46:55;5.43;;;3.78;;
22040;SDS011;11184;52.444;13.578;2023-04-05T14:49:39;2.65;;;2.17;;
22040;SDS011;11184;52.444;13.578;2023-04-05T14:52:24;4.38;;;2.95;;
22040;SDS011;11184;52.444;13.578;2023-04-05T14:55:08;6.75;;;4.05;;
22040;SDS011;11184;52.444;13.578;2023-04-05T14:57:56;3.95;;;3.53;;
22040;SDS011;11184;52.444;13.578;2023-04-05T15:00:40;3.55;;;2.47;;
22040;SDS011;11184;52.444;13.578;2023-04-05T15:03:25;5.43;;;2.90;;
22040;SDS011;11184;52.444;13.578;2023-04-05T15:06:10;3.03;;;2.72;;
22040;SDS011;11184;52.444;13.578;2023-04-05T15:08:54;5.30;;;2.88;;
22040;SDS011;11184;52.444;13.578;2023-04-05T15:11:39;4.75;;;2.58;;
22040;SDS011;11184;52.444;13.578;2023-04-05T15:14:24;4.78;;;2.67;;
22040;SDS011;11184;52.444;13.578;2023-04-05T15:17:08;7.07;;;3.22;;
22040;SDS011;11184;52.444;13.578;2023-04-05T15:19:53;3.40;;;2.60;;
22040;SDS011;11184;52.444;13.578;2023-04-05T15:22:38;3.60;;;2.60;;
22040;SDS011;11184;52.444;13.578;2023-04-05T15:25:23;3.00;;;2.53;;
22040;SDS011;11184;52.444;13.578;2023-04-05T15:28:07;3.58;;;2.08;;
22040;SDS011;11184;52.444;13.578;2023-04-05T15:30:52;4.72;;;2.67;;
22040;SDS011;11184;52.444;13.578;2023-04-05T15:33:37;2.88;;;2.42;;
22040;SDS011;11184;52.444;13.578;2023-04-05T15:36:21;4.38;;;2.80;;
22040;SDS011;11184;52.444;13.578;2023-04-05T15:39:08;2.25;;;1.77;;
22040;SDS011;11184;52.444;13.578;2023-04-05T15:41:53;3.10;;;2.25;;
22040;SDS011;11184;52.444;13.578;2023-04-05T15:44:40;3.25;;;1.52;;
22040;SDS011;11184;52.444;13.578;2023-04-05T15:47:26;3.80;;;2.20;;
22040;SDS011;11184;52.444;13.578;2023-04-05T15:50:10;2.63;;;1.85;;
22040;SDS011;11184;52.444;13.578;2023-04-05T15:52:55;3.35;;;2.13;;
22040;SDS011;11184;52.444;13.578;2023-04-05T15:55:40;2.50;;;2.25;;
22040;SDS011;11184;52.444;13.578;2023-04-05T15:58:25;7.45;;;2.88;;
22040;SDS011;11184;52.444;13.578;2023-04-05T16:01:09;4.38;;;2.72;;
22040;SDS011;11184;52.444;13.578;2023-04-05T16:03:54;4.30;;;2.65;;
22040;SDS011;11184;52.444;13.578;2023-04-05T16:06:38;5.32;;;2.50;;
22040;SDS011;11184;52.444;13.578;2023-04-05T16:09:23;3.55;;;2.00;;
22040;SDS011;11184;52.444;13.578;2023-04-05T16:12:07;7.13;;;2.35;;
22040;SDS011;11184;52.444;13.578;2023-04-05T16:14:52;3.38;;;1.88;;
22040;SDS011;11184;52.444;13.578;2023-04-05T16:17:37;2.58;;;2.00;;
22040;SDS011;11184;52.444;13.578;2023-04-05T16:20:21;4.45;;;2.53;;
22040;SDS011;11184;52.444;13.578;2023-04-05T16:23:05;5.20;;;3.05;;
22040;SDS011;11184;52.444;13.578;2023-04-05T16:25:50;3.78;;;3.15;;
22040;SDS011;11184;52.444;13.578;2023-04-05T16:28:35;4.88;;;3.03;;
22040;SDS011;11184;52.444;13.578;2023-04-05T16:31:19;5.55;;;4.72;;
22040;SDS011;11184;52.444;13.578;2023-04-05T16:34:04;3.08;;;2.38;;
22040;SDS011;11184;52.444;13.578;2023-04-05T16:36:48;3.28;;;2.45;;
22040;SDS011;11184;52.444;13.578;2023-04-05T16:39:33;8.52;;;3.72;;
22040;SDS011;11184;52.444;13.578;2023-04-05T16:42:18;7.72;;;2.78;;
22040;SDS011;11184;52.444;13.578;2023-04-05T16:45:03;3.88;;;3.25;;
22040;SDS011;11184;52.444;13.578;2023-04-05T16:47:48;3.72;;;3.17;;